ASN logo
ASN Wikibase Occurrence # 228573
Last updated: 11 October 2019
This information is added by users of ASN. Neither ASN nor the Flight Safety Foundation are responsible for the completeness or correctness of this information. If you feel this information is incomplete or incorrect, you can submit corrected information.

Date:26-AUG-2019
Time:18:20 UTC
Type:Silhouette image of generic B738 model; specific model in this crash may look slightly different
Boeing 737-85R
Owner/operator:Ethiopian Airlines
Registration: ET-AXI
C/n / msn: 35289
Fatalities:Fatalities: 0 / Occupants:
Other fatalities:0
Aircraft damage: Unknown
Location:Addis Ababa Bole Airport -   Ethiopia
Phase: Landing
Nature:International Scheduled Passenger
Departure airport:Nairobi-Jomo Kenyatta International Airport (NBO/HKJK)
Destination airport:Addis Ababa-Bole Airport (ADD/HAAB)
Narrative:
Ethiopian Airlines flight ET307, a Boeing 737-800, veered off the runway after landing at Addis Ababa Bole Airport, Ethiopia.

Weather reported 40 minutes after the incident:
HAAB 261900Z 09002KT 6000 RA FEW023 CB BKN025 BKN070 14/14 Q1027

Sources:

https://simpleflying.com/ethiopian-737-exits-runway-addis-ababa/
https://www.flightradar24.com/data/aircraft/et-axi#21da3296


Revision history:

Date/timeContributorUpdates
28-Aug-2019 14:44 harro Added

Corrections or additions? ... Edit this accident description